Holicong, PA

3:18 AM EDT on October 24, 2014 (GMT -0400)
Holicong Road | Change Station
CLOSE
Current Station
Personal Weather Station
Location: Buckingham, PA
Elevation: 285 ft
Nearby Weather Stations

Elev 285 ft 40.33 °N, 75.03 °W | Updated 15 seconds ago

Mostly Cloudy
Mostly Cloudy
50.0 °F
Feels Like 50.0 °F
N
0.0
Wind Variable Wind from West
Gusts 3.0 mph

Today
High -- | Low -- °F
--% Chance of Precip.
Yesterday
High -- | Low -- °F
Precip. -- in
7:20 AM 6:07 PM
New Moon, 0% visible
Pressure 29.82 in
Visibility 10.0 miles
Clouds Overcast 2400 ft
Dew Point 50 °F
Humidity 100%
Rainfall -999.00 in
Snow Depth Not available.
UV 0 out of 12
Pollen .10 out of 12
Air Quality Not available.
Flu Activity Sporadic
METAR KDYL 240654Z AUTO 31003KT 10SM OVC024 11/07 A2981 RMK AO2 SLP097 T01060072 $

More Conditions Fewer Conditions

Pressure 29.82 in
Visibility 10.0 miles
Clouds Overcast 2400 ft
Dew Point 50 °F
Humidity 100%
Rainfall -999.00 in
Snow Depth Not available.
UV 0 out of 12
Pollen .10 out of 12
Air Quality Not available.
Flu Activity Sporadic
METAR KDYL 240654Z AUTO 31003KT 10SM OVC024 11/07 A2981 RMK AO2 SLP097 T01060072 $

More Conditions Fewer Conditions

10-Day Weather Forecast

Almanac

Astronomy

Oct. 24, 2014 Rise Set
Actual Time 7:20 AM EDT 6:07 PM EDT
Civil Twilight 6:52 AM EDT 6:35 PM EDT
Nautical Twilight 6:21 AM EDT 7:06 PM EDT
Astronomical Twilight 5:49 AM EDT 7:38 PM EDT
Moon 7:57 AM EDT 6:45 PM EDT
Length of Visible Light 11h 42m
Length of Day
10h 46m
Tomorrow will be 2m 28s shorter.
New Moon, 0% of the Moon is Illuminated
Today
New Moon
Oct 30
First Quarter
Nov 6
Full
Nov 14
Last Quarter
Nov 22
New

Today's Extremes

State Highs State Lows

Community

WunderPhotos

Upload Photos

1,764,510 photos uploaded!

WunderBlogs® & News

Nearby

Snow Depth

Station Depth Elevation
No new snow has been reported.

Earthquake Activity

City Distance Mag. Time & Date
No recent earthquake activity has been reported nearby.
Minimum magnitude displayed is 2.5.

Coastal Water Temperatures

Place Temperature
No Stations Reporting

Nearby Weather Stations